This is the latest recevied weather packets stored in our database for station/object W4SMH. If no packets are shown the sender has not sent any weather packets the latest 10 day(s).
| Time | Temp. | Humidity | Pressure | Rain* | Wind** | Luminosity | Snow |
|---|---|---|---|---|---|---|---|
| 1777412811 | 18.33° C | 53% | 1010.8 hPa | 0 mm | - | 496 W/m² | - |
| 1777412180 | 18.33° C | 55% | 1010.9 hPa | 0 mm | - | 796 W/m² | - |
| 1777411990 | 17.78° C | 57% | 1010.9 hPa | 0 mm | - | 707 W/m² | - |
| 1777411498 | 17.78° C | 54% | 1011 hPa | 0 mm | - | 710 W/m² | - |
| 1777410929 | 17.78° C | 56% | 1010.9 hPa | 0 mm | - | 406 W/m² | - |
| 1777410602 | 12.78° C | 78% | 1017.4 hPa | 0 mm | - | 867 W/m² | - |
| 1777410550 | 12.78° C | 80% | 1017.5 hPa | 0 mm | - | 1123 W/m² | - |
| 1777410543 | 12.78° C | 80% | 1017.7 hPa | 0 mm | - | 1027 W/m² | - |
| 1777410005 | 17.78° C | 57% | 1010.8 hPa | 0 mm | - | 557 W/m² | - |
| 1777409749 | 17.78° C | 56% | 1010.9 hPa | 0 mm | - | 417 W/m² | - |
| 1777409688 | 17.78° C | 57% | 1010.9 hPa | 0 mm | - | 350 W/m² | - |
| 1777409633 | 17.78° C | 56% | 1010.8 hPa | 0 mm | - | 309 W/m² | - |
| 1777409325 | 17.78° C | 55% | 1011 hPa | 0 mm | - | 550 W/m² | - |
| 1777409024 | 17.78° C | 57% | 1010.9 hPa | 0 mm | - | 657 W/m² | - |
| 1777408025 | 17.78° C | 58% | 1010.9 hPa | 0 mm | - | 786 W/m² | - |
| 1777407999 | 17.78° C | 58% | 1011 hPa | 0 mm | - | 784 W/m² | - |
| 1777407723 | 17.78° C | 57% | 1011 hPa | 0 mm | - | 754 W/m² | - |
| 1777407696 | 17.78° C | 58% | 1011 hPa | 0 mm | - | 779 W/m² | - |
| 1777407412 | 17.78° C | 57% | 1011.2 hPa | 0 mm | - | 802 W/m² | - |
| 1777407089 | 17.78° C | 59% | 1011.3 hPa | 0 mm | - | 805 W/m² | - |
| 1777406678 | 17.78° C | 61% | 1011.4 hPa | 0 mm | - | 868 W/m² | - |
| 1777406127 | 17.22° C | 60% | 1011.8 hPa | 0 mm | - | 860 W/m² | - |
| 1777405390 | 17.22° C | 61% | 1011.6 hPa | 0 mm | - | 819 W/m² | - |
| 1777405058 | 17.22° C | 60% | 1011.6 hPa | 0 mm | - | 831 W/m² | - |
| 1777404774 | 11.67° C | 78% | 1017.9 hPa | 0 mm | - | 510 W/m² | - |
* Rain latest hour (hover to see other rain measurements)
** Current wind speed in m/s (hover to see current wind gust speed)